Time;durP1;ratioP1;P1;durP2;ratioP2;P2;SDS_P1;SDS_P2;PMS_P1;PMS_P2;Temp;Humidity;BMP_temperature;BMP_pressure;BME280_temperature;BME280_humidity;BME280_pressure;Samples;Min_cycle;Max_cycle;Signal;HPM_P1;HPM_P2
2021/01/09 00:04:10;;;;;;;19.63;13.15;;;;;;;-0.20;100.00;101495.03;10250675;29;20054;-75
2021/01/09 00:09:11;;;;;;;16.45;11.05;;;;;;;-0.10;100.00;101503.81;10250444;29;20043;-75
2021/01/09 00:14:15;;;;;;;19.30;12.25;;;;;;;0.08;100.00;101505.78;10271131;28;20063;-75
2021/01/09 00:19:16;;;;;;;24.35;14.65;;;;;;;0.16;100.00;101496.38;10258231;29;20047;-75
2021/01/09 00:24:17;;;;;;;26.23;15.32;;;;;;;0.29;100.00;101513.81;10252731;29;20047;-75
2021/01/09 00:29:18;;;;;;;19.40;12.23;;;;;;;0.28;100.00;101505.16;10272066;28;20047;-75
2021/01/09 00:34:20;;;;;;;23.02;12.75;;;;;;;0.31;100.00;101492.25;10264699;28;20059;-75
2021/01/09 00:39:21;;;;;;;24.83;16.33;;;;;;;0.29;100.00;101491.34;10252419;29;20043;-75
2021/01/09 00:44:22;;;;;;;17.60;12.85;;;;;;;0.31;100.00;101494.84;10252771;29;20087;-75
2021/01/09 00:49:24;;;;;;;24.90;14.02;;;;;;;0.33;100.00;101497.44;10255558;28;20057;-75
2021/01/09 00:54:25;;;;;;;22.15;14.65;;;;;;;0.27;100.00;101482.69;10238673;29;20503;-75
2021/01/09 00:59:26;;;;;;;23.63;14.45;;;;;;;0.20;100.00;101470.50;10221430;29;20044;-75
2021/01/09 01:04:28;;;;;;;25.17;14.63;;;;;;;0.27;100.00;101492.16;10245939;28;20073;-75
2021/01/09 01:09:29;;;;;;;20.33;12.30;;;;;;;0.32;100.00;101500.88;10238982;28;20381;-75
2021/01/09 01:14:30;;;;;;;25.42;13.73;;;;;;;0.31;100.00;101501.75;10239442;28;20385;-75
2021/01/09 01:19:31;;;;;;;24.40;14.43;;;;;;;0.27;100.00;101500.81;10251231;28;20053;-75
2021/01/09 01:24:32;;;;;;;25.30;12.10;;;;;;;0.26;100.00;101519.81;10258416;29;20055;-75
2021/01/09 01:29:33;;;;;;;22.38;12.35;;;;;;;0.09;100.00;101516.13;10259492;28;20051;-75
2021/01/09 01:34:35;;;;;;;28.05;13.00;;;;;;;0.07;100.00;101525.63;10258415;28;20444;-75
2021/01/09 01:39:36;;;;;;;24.33;13.60;;;;;;;0.07;100.00;101522.16;10260345;29;20047;-75
2021/01/09 01:44:37;;;;;;;24.13;15.23;;;;;;;0.06;100.00;101548.91;10258052;29;20059;-75
2021/01/09 01:49:39;;;;;;;25.23;16.80;;;;;;;0.13;100.00;101553.31;10224185;29;20051;-75
2021/01/09 01:54:41;;;;;;;31.38;18.42;;;;;;;0.18;100.00;101575.84;10256310;29;20043;-75
2021/01/09 01:59:42;;;;;;;24.92;16.30;;;;;;;0.17;100.00;101555.97;10257249;28;20051;-75
2021/01/09 02:04:51;;;;;;;36.58;19.17;;;;;;;0.06;100.00;101552.38;10289069;28;20051;-75
2021/01/09 02:09:56;;;;;;;24.80;17.27;;;;;;;0.09;100.00;101569.66;10284863;28;20051;-75
2021/01/09 02:15:00;;;;;;;28.02;18.02;;;;;;;0.13;100.00;101572.34;10256193;29;20050;-75
2021/01/09 02:20:02;;;;;;;27.85;18.92;;;;;;;0.13;100.00;101574.06;10244742;29;20051;-75
2021/01/09 02:25:04;;;;;;;20.15;15.00;;;;;;;0.05;100.00;101576.53;10272134;29;20047;-75
2021/01/09 02:30:11;;;;;;;19.10;11.98;;;;;;;-0.09;100.00;101542.69;10255525;29;20055;-74
2021/01/09 02:35:15;;;;;;;14.95;10.63;;;;;;;-0.07;100.00;101553.03;10255500;29;20047;-75
2021/01/09 02:40:20;;;;;;;18.35;11.90;;;;;;;-0.01;100.00;101558.31;10255071;29;20484;-75
2021/01/09 02:45:21;;;;;;;16.98;12.45;;;;;;;0.01;100.00;101559.19;10255541;29;20051;-74
2021/01/09 02:50:22;;;;;;;19.55;12.43;;;;;;;-0.05;100.00;101561.72;10255504;29;20522;-75
2021/01/09 02:55:23;;;;;;;19.67;12.02;;;;;;;-0.07;100.00;101564.28;10254134;29;20047;-75
2021/01/09 03:00:24;;;;;;;18.63;12.15;;;;;;;-0.19;100.00;101568.41;10254778;29;20090;-75
2021/01/09 03:05:26;;;;;;;15.57;10.95;;;;;;;-0.15;100.00;101578.81;10286838;28;20047;-74
2021/01/09 03:10:27;;;;;;;14.02;10.18;;;;;;;-0.01;100.00;101589.41;10252536;28;20503;-75
2021/01/09 03:15:28;;;;;;;19.08;12.05;;;;;;;0.00;100.00;101592.00;10258997;29;20050;-74
2021/01/09 03:20:29;;;;;;;16.85;10.82;;;;;;;0.12;100.00;101609.44;10261612;29;20039;-75
2021/01/09 03:25:30;;;;;;;13.43;10.07;;;;;;;0.08;100.00;101602.50;10253943;29;20044;-74
2021/01/09 03:30:31;;;;;;;12.75;8.85;;;;;;;0.15;100.00;101612.09;10265451;28;20050;-75
2021/01/09 03:35:33;;;;;;;16.13;10.70;;;;;;;0.18;100.00;101611.25;10268807;28;20059;-75
2021/01/09 03:40:34;;;;;;;15.00;10.15;;;;;;;0.17;100.00;101605.19;10253450;29;20503;-75
2021/01/09 03:45:36;;;;;;;15.38;9.80;;;;;;;0.14;100.00;101612.94;10252812;29;20479;-74
2021/01/09 03:50:37;;;;;;;20.88;13.02;;;;;;;0.12;100.00;101612.03;10253347;29;20095;-75
2021/01/09 03:55:38;;;;;;;20.08;13.73;;;;;;;0.09;100.00;101606.81;10253027;29;20039;-75
2021/01/09 04:00:39;;;;;;;18.75;11.85;;;;;;;0.10;100.00;101600.78;10252675;29;20055;-75
2021/01/09 04:05:41;;;;;;;19.23;13.65;;;;;;;0.14;100.00;101588.75;10254366;28;20074;-75
2021/01/09 04:10:42;;;;;;;22.80;15.82;;;;;;;0.26;100.00;101604.44;10253577;28;20047;-75
2021/01/09 04:15:43;;;;;;;27.33;18.05;;;;;;;0.20;100.00;101588.81;10253131;29;20035;-74
2021/01/09 04:20:44;;;;;;;23.45;15.15;;;;;;;0.18;100.00;101577.56;10252088;28;20054;-74
2021/01/09 04:25:45;;;;;;;21.60;14.77;;;;;;;0.18;100.00;101598.28;10257870;28;20544;-74
2021/01/09 04:30:47;;;;;;;18.60;12.55;;;;;;;0.11;100.00;101592.16;10292205;28;20045;-75
2021/01/09 04:35:48;;;;;;;23.50;12.68;;;;;;;0.07;100.00;101586.94;10300689;28;20496;-74
2021/01/09 04:40:49;;;;;;;19.30;11.45;;;;;;;0.06;100.00;101593.81;10262638;28;20050;-74
2021/01/09 04:45:51;;;;;;;21.90;12.98;;;;;;;-0.04;100.00;101598.00;10261301;28;20094;-74
2021/01/09 04:50:53;;;;;;;20.42;12.05;;;;;;;-0.11;100.00;101601.34;10293307;28;20043;-75
2021/01/09 04:55:56;;;;;;;24.95;14.85;;;;;;;-0.11;100.00;101603.06;10259568;29;20047;-75
2021/01/09 05:00:58;;;;;;;26.17;15.63;;;;;;;0.00;100.00;101617.06;10228171;28;20052;-75
2021/01/09 05:06:00;;;;;;;25.25;14.68;;;;;;;-0.01;100.00;101617.91;10261531;28;20044;-74
2021/01/09 05:11:03;;;;;;;24.88;14.63;;;;;;;0.11;100.00;101622.38;10258973;29;20373;-75
2021/01/09 05:16:05;;;;;;;25.65;14.52;;;;;;;0.21;100.00;101637.22;10253542;28;20365;-75
2021/01/09 05:21:10;;;;;;;21.52;13.90;;;;;;;0.25;100.00;101642.44;10259472;28;20043;-75
2021/01/09 05:26:13;;;;;;;21.33;13.50;;;;;;;0.17;100.00;101627.66;10258262;29;20079;-74
2021/01/09 05:31:16;;;;;;;16.52;11.50;;;;;;;0.06;100.00;101621.44;10292547;28;20447;-75
2021/01/09 05:36:18;;;;;;;17.15;11.35;;;;;;;-0.06;100.00;101620.41;10250163;29;20053;-74
2021/01/09 05:41:22;;;;;;;15.50;10.23;;;;;;;0.03;100.00;101630.03;10239934;29;20055;-75
2021/01/09 05:46:23;;;;;;;22.85;14.05;;;;;;;0.18;100.00;101645.78;10257594;29;20069;-75
2021/01/09 05:51:30;;;;;;;32.05;17.60;;;;;;;0.18;100.00;101655.28;10258294;28;20558;-74
2021/01/09 05:56:37;;;;;;;37.22;19.05;;;;;;;0.09;100.00;101648.25;10272139;28;20055;-75
2021/01/09 06:01:42;;;;;;;55.45;22.60;;;;;;;0.07;100.00;101644.78;10257188;28;20048;-75
2021/01/09 06:06:53;;;;;;;;;;;;;;;0.14;100.00;101669.94;10240224;29;20436;-74
2021/01/09 06:11:55;;;;;;;39.80;18.10;;;;;;;0.14;100.00;101679.44;10256489;29;20414;-75
2021/01/09 06:16:58;;;;;;;37.60;16.48;;;;;;;0.14;100.00;101674.25;10256731;29;20123;-74
2021/01/09 06:22:00;;;;;;;38.42;16.45;;;;;;;0.12;100.00;101673.34;10239231;29;20055;-74
2021/01/09 06:27:02;;;;;;;24.83;15.00;;;;;;;-0.01;100.00;101678.34;10256131;28;20039;-75
2021/01/09 06:32:04;;;;;;;21.70;13.13;;;;;;;0.09;100.00;101687.09;10295768;28;20045;-74
2021/01/09 06:37:06;;;;;;;23.75;13.68;;;;;;;0.05;100.00;101681.88;10257239;28;20167;-74
2021/01/09 06:42:10;;;;;;;26.60;16.23;;;;;;;0.09;100.00;101692.28;10255501;29;20483;-74
2021/01/09 06:47:23;;;;;;;25.65;15.73;;;;;;;0.04;100.00;101691.34;10254009;28;20047;-74
2021/01/09 06:53:10;;;;;;;31.48;18.42;;;;;;;0.11;100.00;101703.56;10265276;28;20051;-74
2021/01/09 06:58:15;;;;;;;38.38;20.38;;;;;;;0.11;100.00;101700.09;10262189;28;20424;-74
2021/01/09 07:03:23;;;;;;;48.95;22.42;;;;;;;0.18;100.00;101718.34;10254381;29;20044;-74
2021/01/09 07:08:26;;;;;;;49.85;21.88;;;;;;;0.14;100.00;101715.69;10220954;29;20054;-74
2021/01/09 07:13:28;;;;;;;42.38;23.63;;;;;;;0.20;100.00;101719.25;10236759;29;20051;-74
2021/01/09 07:18:30;;;;;;;51.63;26.95;;;;;;;0.17;100.00;101728.72;10253867;29;20047;-74
2021/01/09 07:23:33;;;;;;;52.10;28.90;;;;;;;0.23;100.00;101724.50;10246984;29;20035;-74
2021/01/09 07:28:36;;;;;;;55.83;28.40;;;;;;;0.26;100.00;101734.88;10254106;28;20050;-72
2021/01/09 07:33:46;;;;;;;46.38;26.00;;;;;;;0.34;100.00;101743.66;10251617;29;20059;-72
2021/01/09 07:38:47;;;;;;;54.63;26.40;;;;;;;0.38;100.00;101752.34;10253385;29;20118;-72
2021/01/09 07:43:50;;;;;;;42.22;23.70;;;;;;;0.25;100.00;101733.13;10213948;29;20079;-72
2021/01/09 07:48:52;;;;;;;42.10;20.23;;;;;;;0.17;100.00;101732.16;10236631;29;20035;-72
2021/01/09 07:53:53;;;;;;;46.33;23.10;;;;;;;0.21;100.00;101740.84;10275008;28;20042;-72
2021/01/09 07:58:54;;;;;;;46.30;22.58;;;;;;;0.27;100.00;101746.13;10273203;28;20047;-72
2021/01/09 08:03:57;;;;;;;45.00;22.02;;;;;;;0.28;100.00;101759.13;10258542;29;20051;-73
2021/01/09 08:08:58;;;;;;;49.30;21.48;;;;;;;0.29;100.00;101766.03;10241739;29;20106;-72
2021/01/09 08:14:02;;;;;;;46.20;21.48;;;;;;;0.27;100.00;101762.53;10258468;29;20035;-72
2021/01/09 08:19:14;;;;;;;53.30;22.03;;;;;;;0.24;100.00;101767.69;10260462;29;20047;-72
2021/01/09 08:24:26;;;;;;;41.33;17.83;;;;;;;0.27;100.00;101769.44;10260881;29;20403;-72
2021/01/09 08:29:28;;;;;;;48.47;24.92;;;;;;;0.30;100.00;101780.75;10275943;28;20121;-72
2021/01/09 08:34:29;;;;;;;89.53;25.63;;;;;;;0.12;100.00;101771.78;10260584;28;20055;-72
2021/01/09 08:39:34;;;;;;;42.15;20.17;;;;;;;0.14;100.00;101785.66;10255743;29;20043;-72
2021/01/09 08:44:46;;;;;;;75.55;27.70;;;;;;;-0.10;100.00;101767.97;10261943;28;20065;-72
2021/01/09 08:49:49;;;;;;;84.60;27.20;;;;;;;-0.01;100.00;101781.97;10260951;28;20047;-72
2021/01/09 08:54:53;;;;;;;105.28;27.15;;;;;;;0.15;100.00;101810.72;10272548;28;20049;-72
2021/01/09 08:59:54;;;;;;;43.50;20.10;;;;;;;0.07;100.00;101823.53;10277453;28;20047;-72
2021/01/09 09:04:59;;;;;;;47.63;19.67;;;;;;;0.06;100.00;101824.38;10258183;29;20066;-72
2021/01/09 09:10:00;;;;;;;69.00;27.08;;;;;;;0.10;100.00;101848.59;10298417;28;20042;-72
2021/01/09 09:15:05;;;;;;;68.53;26.85;;;;;;;0.20;100.00;101847.94;10274430;28;20051;-72
2021/01/09 09:20:15;;;;;;;66.65;27.38;;;;;;;0.43;100.00;101864.75;10259755;28;20325;-72
2021/01/09 09:25:26;;;;;;;59.88;23.50;;;;;;;0.35;100.00;101863.75;10204231;29;20096;-73
2021/01/09 09:30:27;;;;;;;73.38;28.80;;;;;;;0.46;100.00;101880.38;10269560;28;20046;-72
2021/01/09 09:35:29;;;;;;;76.78;29.25;;;;;;;0.50;100.00;101879.59;10285097;28;20055;-72
2021/01/09 09:40:33;;;;;;;73.50;31.15;;;;;;;0.39;100.00;101878.53;10257662;29;20051;-72
2021/01/09 09:45:34;;;;;;;92.53;39.50;;;;;;;0.38;100.00;101875.06;10273599;28;20511;-72
2021/01/09 09:50:36;;;;;;;69.43;30.85;;;;;;;0.49;100.00;101882.16;10257724;29;20047;-73
2021/01/09 09:55:37;;;;;;;84.35;38.63;;;;;;;0.34;100.00;101870.66;10257351;29;20039;-72
2021/01/09 10:00:42;;;;;;;81.88;37.75;;;;;;;0.35;100.00;101885.34;10256811;29;20078;-72
2021/01/09 10:05:59;;;;;;;88.18;40.70;;;;;;;0.51;100.00;101888.22;10256651;29;20056;-72
2021/01/09 10:11:01;;;;;;;66.15;31.85;;;;;;;0.38;100.00;101881.97;10256202;29;20043;-72
2021/01/09 10:16:03;;;;;;;63.33;30.38;;;;;;;0.45;100.00;101885.53;10248026;29;20503;-72
2021/01/09 10:21:05;;;;;;;71.38;31.23;;;;;;;0.57;100.00;101881.44;10256141;28;20047;-72
2021/01/09 10:26:06;;;;;;;62.45;32.03;;;;;;;0.65;100.00;101889.34;10256293;29;20487;-72
2021/01/09 10:31:07;;;;;;;92.45;37.53;;;;;;;0.53;100.00;101877.03;10290070;28;20376;-72
2021/01/09 10:36:08;;;;;;;89.25;38.42;;;;;;;0.85;100.00;101890.53;10284754;28;20097;-72
2021/01/09 10:41:12;;;;;;;85.90;44.97;;;;;;;0.39;100.00;101868.16;10255425;29;20484;-72
2021/01/09 10:46:28;;;;;;;72.88;32.38;;;;;;;0.73;100.00;101888.63;10292441;28;20428;-72
2021/01/09 10:51:29;;;;;;;74.35;32.75;;;;;;;0.66;100.00;101876.41;10279140;28;20035;-72
2021/01/09 10:56:31;;;;;;;76.05;36.05;;;;;;;0.71;100.00;101874.75;10236419;29;20868;-72
2021/01/09 11:01:32;;;;;;;71.68;32.88;;;;;;;0.74;100.00;101866.16;10254679;28;20054;-72
2021/01/09 11:06:33;;;;;;;74.68;33.22;;;;;;;0.92;100.00;101871.59;10237636;29;20057;-72
2021/01/09 11:11:35;;;;;;;59.75;28.88;;;;;;;0.85;100.00;101861.13;10253770;29;20047;-72
2021/01/09 11:16:36;;;;;;;52.67;28.73;;;;;;;0.91;100.00;101856.03;10255061;29;20043;-72
2021/01/09 11:21:39;;;;;;;58.95;26.00;;;;;;;1.01;100.00;101856.19;10254167;29;20602;-73
2021/01/09 11:26:41;;;;;;;64.40;30.85;;;;;;;1.06;100.00;101851.94;10254545;29;20051;-72
2021/01/09 11:31:42;;;;;;;48.10;25.17;;;;;;;1.05;100.00;101833.75;10285848;28;20506;-72
2021/01/09 11:36:44;;;;;;;53.33;25.77;;;;;;;1.11;100.00;101834.72;10253358;29;20066;-72
2021/01/09 11:41:46;;;;;;;43.88;22.90;;;;;;;1.31;100.00;101839.31;10255151;28;20460;-72
2021/01/09 11:46:47;;;;;;;41.70;19.83;;;;;;;1.44;100.00;101828.22;10286319;28;20039;-72
2021/01/09 11:51:48;;;;;;;40.85;21.77;;;;;;;1.21;100.00;101806.28;10254316;29;20111;-72
2021/01/09 11:56:54;;;;;;;34.60;19.00;;;;;;;1.48;100.00;101814.44;10252599;29;20050;-72
2021/01/09 12:01:55;;;;;;;32.72;18.00;;;;;;;1.30;100.00;101793.44;10254029;29;20836;-72
2021/01/09 12:06:57;;;;;;;55.50;32.05;;;;;;;1.61;100.00;101797.25;10253573;29;20047;-72
2021/01/09 12:11:59;;;;;;;32.65;19.60;;;;;;;1.45;100.00;101791.00;10252556;29;20047;-72
2021/01/09 12:17:03;;;;;;;25.27;15.73;;;;;;;1.40;100.00;101782.31;10253111;29;20039;-72
2021/01/09 12:22:05;;;;;;;30.70;18.42;;;;;;;1.32;100.00;101770.97;10240378;28;20047;-72
2021/01/09 12:27:06;;;;;;;31.38;19.10;;;;;;;1.52;100.00;101759.94;10258053;28;20093;-72
2021/01/09 12:32:07;;;;;;;25.88;16.25;;;;;;;1.85;100.00;101771.53;10235570;28;20055;-72
2021/01/09 12:37:08;;;;;;;31.65;18.50;;;;;;;1.79;100.00;101748.97;10274294;28;20065;-72
2021/01/09 12:42:10;;;;;;;29.25;17.10;;;;;;;1.90;100.00;101733.50;10229310;28;20044;-72
2021/01/09 12:47:11;;;;;;;25.45;14.32;;;;;;;2.06;100.00;101737.09;10259445;28;20528;-72
2021/01/09 12:52:13;;;;;;;26.50;16.63;;;;;;;2.31;100.00;101731.25;10260882;29;20043;-72
2021/01/09 12:57:14;;;;;;;26.33;15.98;;;;;;;2.24;100.00;101719.06;10256330;28;20050;-73
2021/01/09 13:02:15;;;;;;;23.92;15.98;;;;;;;1.83;100.00;101716.13;10283066;28;20050;-72
2021/01/09 13:07:16;;;;;;;27.38;17.88;;;;;;;1.89;100.00;101709.25;10299710;28;20403;-72
2021/01/09 13:12:17;;;;;;;26.45;16.25;;;;;;;1.92;100.00;101705.81;10262575;28;20041;-72
2021/01/09 13:17:21;;;;;;;24.55;16.15;;;;;;;1.81;100.00;101699.63;10257853;29;20043;-72
2021/01/09 13:22:22;;;;;;;25.17;17.02;;;;;;;1.77;100.00;101693.53;10241391;29;20075;-72
2021/01/09 13:27:23;;;;;;;32.97;20.45;;;;;;;1.80;100.00;101692.69;10261978;28;20089;-72
2021/01/09 13:32:25;;;;;;;39.75;25.77;;;;;;;1.89;100.00;101701.44;10230645;28;20419;-72
2021/01/09 13:37:29;;;;;;;32.25;20.85;;;;;;;1.94;100.00;101691.06;10250414;28;20055;-72
2021/01/09 13:42:30;;;;;;;37.07;23.23;;;;;;;1.99;100.00;101698.94;10273045;28;20055;-72
2021/01/09 13:47:34;;;;;;;40.55;26.25;;;;;;;1.82;100.00;101676.28;10240486;29;20048;-72
2021/01/09 13:52:35;;;;;;;26.83;16.85;;;;;;;2.03;100.00;101696.34;10256200;29;20074;-72
2021/01/09 13:57:36;;;;;;;20.85;16.02;;;;;;;2.13;100.00;101697.31;10256804;28;20062;-72
2021/01/09 14:02:37;;;;;;;18.92;14.13;;;;;;;2.23;100.00;101696.53;10239954;29;20422;-72
2021/01/09 14:07:39;;;;;;;18.85;13.55;;;;;;;2.20;100.00;101693.88;10256522;29;20055;-72
2021/01/09 14:12:40;;;;;;;17.27;13.23;;;;;;;1.94;100.00;101692.81;10238822;29;20055;-73
2021/01/09 14:17:41;;;;;;;20.50;12.57;;;;;;;1.82;100.00;101688.41;10246941;29;20043;-72
2021/01/09 14:22:43;;;;;;;19.50;13.90;;;;;;;1.75;100.00;101687.47;10254623;29;20500;-72
2021/01/09 14:27:44;;;;;;;23.80;16.13;;;;;;;1.94;100.00;101690.19;10261687;28;20480;-72
2021/01/09 14:32:45;;;;;;;19.35;12.90;;;;;;;1.94;100.00;101701.47;10288154;28;20050;-72
2021/01/09 14:37:47;;;;;;;35.38;21.05;;;;;;;1.96;100.00;101704.97;10229024;29;20047;-72
2021/01/09 14:42:50;;;;;;;30.30;18.25;;;;;;;1.83;100.00;101697.94;10254964;29;20054;-72
2021/01/09 14:47:51;;;;;;;20.02;14.32;;;;;;;1.85;100.00;101704.00;10238521;29;20043;-72
2021/01/09 14:52:53;;;;;;;25.05;16.13;;;;;;;1.83;100.00;101701.41;10254481;29;20078;-72
2021/01/09 14:57:55;;;;;;;24.70;14.93;;;;;;;1.76;100.00;101702.19;10254818;29;20055;-72
2021/01/09 15:02:56;;;;;;;18.80;12.55;;;;;;;1.70;100.00;101696.94;10253279;29;20420;-72
2021/01/09 15:07:57;;;;;;;23.70;16.63;;;;;;;1.67;100.00;101709.91;10253641;28;20039;-72
2021/01/09 15:13:05;;;;;;;24.65;16.70;;;;;;;1.58;100.00;101709.81;10253817;29;20047;-72
2021/01/09 15:18:07;;;;;;;27.85;18.70;;;;;;;1.51;100.00;101711.44;10247265;29;20104;-72
2021/01/09 15:23:08;;;;;;;33.22;21.30;;;;;;;1.46;100.00;101717.47;10254676;28;20495;-72
2021/01/09 15:28:09;;;;;;;75.43;49.83;;;;;;;1.58;100.00;101728.00;10253568;28;20090;-72
2021/01/09 15:33:11;;;;;;;25.67;18.45;;;;;;;1.61;100.00;101732.31;10263465;28;20543;-73
2021/01/09 15:38:14;;;;;;;19.80;15.77;;;;;;;1.62;100.00;101739.28;10253988;29;20047;-72
2021/01/09 15:43:16;;;;;;;27.05;20.90;;;;;;;1.60;100.00;101740.97;10253126;29;20045;-72
2021/01/09 15:48:17;;;;;;;24.60;19.25;;;;;;;1.56;100.00;101740.09;10252424;28;20094;-73
2021/01/09 15:53:18;;;;;;;20.75;15.52;;;;;;;1.52;100.00;101741.75;10233003;29;20046;-73
2021/01/09 15:58:19;;;;;;;22.73;15.45;;;;;;;1.43;100.00;101733.88;10246691;29;20097;-73
2021/01/09 16:03:20;;;;;;;19.48;13.57;;;;;;;1.53;100.00;101751.31;10197444;29;20048;-73
2021/01/09 16:08:22;;;;;;;20.83;15.00;;;;;;;1.56;100.00;101760.00;10253035;29;20047;-74
2021/01/09 16:13:23;;;;;;;20.42;14.02;;;;;;;1.56;100.00;101767.78;10252315;29;20043;-74
2021/01/09 16:18:24;;;;;;;24.25;15.68;;;;;;;1.47;100.00;101766.81;10253162;28;20427;-74
2021/01/09 16:23:26;;;;;;;27.00;17.90;;;;;;;1.50;100.00;101772.06;10228038;29;20043;-73
2021/01/09 16:28:28;;;;;;;28.75;17.98;;;;;;;1.38;100.00;101768.44;10225393;28;20049;-73
2021/01/09 16:33:29;;;;;;;43.25;22.80;;;;;;;1.38;100.00;101776.22;10240220;29;20051;-73
2021/01/09 16:38:30;;;;;;;39.47;21.08;;;;;;;1.25;100.00;101763.97;10248162;29;20043;-73
2021/01/09 16:43:31;;;;;;;42.80;22.95;;;;;;;1.26;100.00;101792.50;10258588;29;20047;-73
2021/01/09 16:48:32;;;;;;;32.40;19.23;;;;;;;1.27;100.00;101794.25;10259433;29;20057;-73
2021/01/09 16:53:33;;;;;;;36.78;21.02;;;;;;;1.12;100.00;101789.75;10242604;29;20472;-73
2021/01/09 16:58:35;;;;;;;44.40;22.92;;;;;;;1.14;100.00;101789.78;10257824;29;20055;-73
2021/01/09 17:03:36;;;;;;;53.13;27.67;;;;;;;1.00;100.00;101781.81;10259154;29;20054;-71
2021/01/09 17:08:40;;;;;;;45.08;24.42;;;;;;;1.02;100.00;101776.63;10247091;28;20047;-72
2021/01/09 17:13:41;;;;;;;45.13;24.10;;;;;;;1.08;100.00;101775.00;10241692;28;20050;-74
2021/01/09 17:18:42;;;;;;;41.63;23.35;;;;;;;1.08;100.00;101792.28;10256536;28;20089;-73
2021/01/09 17:23:45;;;;;;;39.15;22.80;;;;;;;1.02;100.00;101798.25;10254816;28;20043;-74
2021/01/09 17:28:46;;;;;;;40.90;22.90;;;;;;;1.09;100.00;101799.19;10239040;28;20517;-73
2021/01/09 17:33:47;;;;;;;51.90;30.92;;;;;;;1.19;100.00;101802.78;10256401;29;20384;-73
2021/01/09 17:38:49;;;;;;;40.60;23.52;;;;;;;1.12;100.00;101813.09;10253998;28;20131;-69
2021/01/09 17:43:51;;;;;;;48.53;26.05;;;;;;;1.18;100.00;101812.28;10255992;29;20091;-71
2021/01/09 17:48:52;;;;;;;47.95;26.67;;;;;;;1.24;100.00;101814.13;10239327;29;20043;-72
2021/01/09 17:53:57;;;;;;;49.90;32.72;;;;;;;1.19;100.00;101815.78;10255500;29;20062;-72
2021/01/09 17:59:00;;;;;;;49.17;28.13;;;;;;;1.02;100.00;101799.97;10255274;29;20043;-71
2021/01/09 18:04:03;;;;;;;45.28;25.92;;;;;;;0.98;100.00;101819.84;10255716;29;20135;-71
2021/01/09 18:09:08;;;;;;;40.20;25.95;;;;;;;0.93;100.00;101829.25;10249161;29;20072;-71
2021/01/09 18:14:10;;;;;;;44.33;24.95;;;;;;;0.94;100.00;101836.19;10225265;29;20504;-72
2021/01/09 18:19:12;;;;;;;47.42;27.88;;;;;;;1.00;100.00;101849.28;10235227;29;20062;-71
2021/01/09 18:24:21;;;;;;;58.78;33.03;;;;;;;0.92;100.00;101850.84;10232439;29;20051;-71
2021/01/09 18:29:24;;;;;;;49.67;26.83;;;;;;;0.95;100.00;101850.03;10237824;28;20075;-71
2021/01/09 18:34:26;;;;;;;56.95;30.42;;;;;;;1.06;100.00;101853.66;10254267;28;20125;-71
2021/01/09 18:39:27;;;;;;;62.47;34.90;;;;;;;1.03;100.00;101846.69;10255358;29;20047;-71
2021/01/09 18:44:34;;;;;;;38.15;23.00;;;;;;;0.96;100.00;101850.06;10219865;29;20451;-71
2021/01/09 18:49:38;;;;;;;44.80;26.10;;;;;;;1.06;100.00;101870.13;10233639;29;20058;-72
2021/01/09 18:54:46;;;;;;;58.88;32.28;;;;;;;1.07;100.00;101864.06;10236734;29;20043;-72
2021/01/09 18:59:48;;;;;;;55.00;31.75;;;;;;;0.98;100.00;101856.16;10236564;29;20054;-72
2021/01/09 19:04:51;;;;;;;55.25;33.83;;;;;;;1.00;100.00;101854.47;10235858;29;20106;-72
2021/01/09 19:10:16;;;;;;;54.50;32.42;;;;;;;0.93;100.00;101857.78;10207001;29;20130;-72
2021/01/09 19:15:22;;;;;;;42.53;24.42;;;;;;;0.98;100.00;101866.53;10209549;29;20113;-72
2021/01/09 19:20:39;;;;;;;140.80;80.50;;;;;;;0.92;100.00;101860.38;10235621;29;20069;-72
2021/01/09 19:25:42;;;;;;;48.05;28.17;;;;;;;1.10;100.00;101882.25;10235710;28;20141;-72
2021/01/09 19:30:47;;;;;;;59.10;32.33;;;;;;;1.11;100.00;101884.00;10235735;29;20122;-72
2021/01/09 19:35:48;;;;;;;55.45;30.20;;;;;;;0.98;100.00;101882.09;10235598;29;20055;-72
2021/01/09 19:40:50;;;;;;;36.35;23.75;;;;;;;0.98;100.00;101894.19;10235572;29;20043;-72
2021/01/09 19:45:56;;;;;;;32.65;22.17;;;;;;;1.03;100.00;101877.84;10236321;29;20114;-72
2021/01/09 19:51:07;;;;;;;33.85;21.67;;;;;;;1.13;100.00;101902.22;10219303;29;20058;-72
2021/01/09 19:56:15;;;;;;;35.78;22.80;;;;;;;1.09;100.00;101895.22;10241681;29;20102;-72
2021/01/09 20:01:22;;;;;;;32.15;20.48;;;;;;;1.01;100.00;101892.50;10260410;29;20043;-72
2021/01/09 20:06:25;;;;;;;36.53;23.25;;;;;;;1.01;100.00;101895.09;10229853;29;20051;-72
2021/01/09 20:11:48;;;;;;;35.45;22.25;;;;;;;1.10;100.00;101900.44;10238698;29;20143;-72
2021/01/09 20:16:57;;;;;;;35.38;21.63;;;;;;;1.13;100.00;101910.00;10256557;29;20071;-72
2021/01/09 20:22:20;;;;;;;41.13;23.02;;;;;;;1.16;100.00;101911.78;10227891;28;20058;-72
2021/01/09 20:27:26;;;;;;;34.10;21.27;;;;;;;1.12;100.00;101909.13;10263149;28;20039;-73
2021/01/09 20:32:28;;;;;;;34.83;21.45;;;;;;;1.05;100.00;101898.63;10292565;28;20047;-72
2021/01/09 20:37:30;;;;;;;40.38;25.95;;;;;;;1.15;100.00;101913.50;10265891;28;20391;-72
2021/01/09 20:42:38;;;;;;;38.67;25.45;;;;;;;1.10;100.00;101903.03;10258718;28;20396;-72
2021/01/09 20:47:44;;;;;;;32.78;20.60;;;;;;;0.99;100.00;101901.13;10270036;28;20102;-72
2021/01/09 20:52:46;;;;;;;37.53;21.40;;;;;;;1.07;100.00;101920.28;10259581;28;20043;-72
2021/01/09 20:57:50;;;;;;;32.97;20.83;;;;;;;1.00;100.00;101914.13;10243062;29;20416;-72
2021/01/09 21:02:51;;;;;;;48.85;28.52;;;;;;;0.94;100.00;101915.75;10218341;29;20400;-72
2021/01/09 21:07:52;;;;;;;59.13;31.35;;;;;;;1.07;100.00;101923.75;10257963;28;20125;-72
2021/01/09 21:12:53;;;;;;;40.92;24.05;;;;;;;0.97;100.00;101921.00;10257682;28;20051;-72
2021/01/09 21:17:54;;;;;;;55.53;30.67;;;;;;;0.96;100.00;101938.28;10257809;29;20043;-72
2021/01/09 21:22:55;;;;;;;40.50;24.27;;;;;;;0.76;100.00;101917.19;10258339;29;20051;-72
2021/01/09 21:27:57;;;;;;;48.00;27.55;;;;;;;0.90;100.00;101937.31;10266038;28;20125;-72
2021/01/09 21:32:58;;;;;;;44.42;25.20;;;;;;;0.98;100.00;101934.00;10281549;28;20062;-72
2021/01/09 21:38:02;;;;;;;37.67;22.42;;;;;;;0.86;100.00;101931.19;10239492;28;20109;-72
2021/01/09 21:43:03;;;;;;;50.63;27.53;;;;;;;0.89;100.00;101936.44;10255572;28;20400;-72
2021/01/09 21:48:05;;;;;;;44.95;25.52;;;;;;;0.86;100.00;101936.38;10266611;28;20129;-72
2021/01/09 21:53:06;;;;;;;45.90;27.70;;;;;;;0.92;100.00;101953.78;10268567;28;20400;-72
2021/01/09 21:58:07;;;;;;;36.33;23.63;;;;;;;0.87;100.00;101950.22;10216129;29;20051;-72
2021/01/09 22:03:08;;;;;;;38.05;23.15;;;;;;;0.86;100.00;101951.06;10200572;29;20044;-72
2021/01/09 22:08:10;;;;;;;45.78;28.92;;;;;;;0.91;100.00;101950.31;10256453;29;20130;-72
2021/01/09 22:13:13;;;;;;;32.92;21.55;;;;;;;0.88;100.00;101962.34;10257398;28;20039;-72
2021/01/09 22:18:14;;;;;;;36.35;21.88;;;;;;;0.95;100.00;101959.88;10277146;28;20043;-72
2021/01/09 22:23:15;;;;;;;41.80;24.95;;;;;;;1.04;100.00;101965.22;10270807;28;20051;-72
2021/01/09 22:28:16;;;;;;;52.42;31.65;;;;;;;1.09;100.00;101960.09;10266721;28;20062;-72
2021/01/09 22:33:18;;;;;;;46.65;29.13;;;;;;;1.17;100.00;101963.72;10275607;28;20047;-72
2021/01/09 22:38:19;;;;;;;35.08;21.40;;;;;;;1.04;100.00;101953.97;10248225;29;20512;-72
2021/01/09 22:43:20;;;;;;;37.15;22.52;;;;;;;0.86;100.00;101927.72;10253838;29;20055;-72